Pagina principale
METAR-TAF:

METAR-TAF

Aeroporti :

Bologna, Italia

Aeroporto di Bologna-Borgo Panigale

latitudine: 44-32N, longitudine: 011-18E, altezza: 36 m

Osservazione

Il bollettino è stato emesso 38 minuti fa, alle 19:50 UTC
Vento 13 kt da sud-est
Temperature 22°C
Umidità 50%
Pressione 1004 hPa
Visibilità 10 km o più
Poco nuvoloso ad un'altezza di 4000 ft

METAR: LIPE 251950Z 13013KT 9999 FEW040 22/11 Q1004

Ora: 22:28 (20:28 UTC)

Previsione

Il bollettino è stato emesso 3 ore e 28 minuti fa, alle 17:00 UTC
Previsione valida dal 25 alle 18 UTC al 26 alle 18 UTC
Vento 5 kt da direzioni variabili
Visibilità 10 km o più
Nubi sparse ad un'altezza di 5000 ft
Evoluzione graduale
dal 26 alle 09 UTC al 26 alle 11 UTC
Vento 10 kt da nord/nord-ovest
Evoluzione graduale
dal 26 alle 16 UTC al 26 alle 18 UTC
Vento 4 kt da direzioni variabili

TAF: LIPE 251700Z 2518/2618 VRB05KT 9999 SCT050 BECMG 2609/2611 34010KT BECMG 2616/2618 VRB04KT

Osservazioni e previsioni meteorologiche di più di 4000 aeroporti (messaggi METAR e TAF).

Le stazioni disponibili sono rappresentate dai dischi gialli e rossi sulla carta.

Puntare il mouse per vedere il nome della stazione.

Clicca sopra per visualizzare le osservazioni e previsioni meteorologiche.

Per cambiare la mappa : fare clic sui pulsanti verdi con una croce nera per ingrandire, il pulsante verde con un trattino per diminuire, o sulla freccia verde per le mappe adiacenti.


METAR-TAF: